sensor_id;sensor_type;location;lat;lon;timestamp;P1;durP1;ratioP1;P2;durP2;ratioP2
39750;SDS011;37579;51.074;17.004;2023-03-01T00:01:29;5.95;;;4.32;;
39750;SDS011;37579;51.074;17.004;2023-03-01T00:03:56;6.60;;;4.30;;
39750;SDS011;37579;51.074;17.004;2023-03-01T00:06:23;5.80;;;4.50;;
39750;SDS011;37579;51.074;17.004;2023-03-01T00:08:50;6.72;;;4.55;;
39750;SDS011;37579;51.074;17.004;2023-03-01T00:11:23;6.47;;;4.40;;
39750;SDS011;37579;51.074;17.004;2023-03-01T00:13:54;5.95;;;4.60;;
39750;SDS011;37579;51.074;17.004;2023-03-01T00:16:27;7.30;;;4.70;;
39750;SDS011;37579;51.074;17.004;2023-03-01T00:18:58;6.47;;;4.45;;
39750;SDS011;37579;51.074;17.004;2023-03-01T00:21:25;6.30;;;4.90;;
39750;SDS011;37579;51.074;17.004;2023-03-01T00:23:51;6.25;;;4.55;;
39750;SDS011;37579;51.074;17.004;2023-03-01T00:26:18;5.70;;;4.43;;
39750;SDS011;37579;51.074;17.004;2023-03-01T00:28:45;6.65;;;4.78;;
39750;SDS011;37579;51.074;17.004;2023-03-01T00:31:16;5.97;;;4.50;;
39750;SDS011;37579;51.074;17.004;2023-03-01T00:33:44;5.70;;;4.40;;
39750;SDS011;37579;51.074;17.004;2023-03-01T00:36:11;6.50;;;4.88;;
39750;SDS011;37579;51.074;17.004;2023-03-01T00:38:39;8.60;;;5.35;;
39750;SDS011;37579;51.074;17.004;2023-03-01T00:41:07;6.18;;;4.68;;
39750;SDS011;37579;51.074;17.004;2023-03-01T00:43:36;5.78;;;4.63;;
39750;SDS011;37579;51.074;17.004;2023-03-01T00:46:02;5.97;;;4.53;;
39750;SDS011;37579;51.074;17.004;2023-03-01T00:48:29;6.47;;;4.60;;
39750;SDS011;37579;51.074;17.004;2023-03-01T00:50:55;7.35;;;5.00;;
39750;SDS011;37579;51.074;17.004;2023-03-01T00:53:21;6.85;;;5.22;;
39750;SDS011;37579;51.074;17.004;2023-03-01T00:55:47;5.63;;;4.45;;
39750;SDS011;37579;51.074;17.004;2023-03-01T00:58:12;6.80;;;5.22;;
39750;SDS011;37579;51.074;17.004;2023-03-01T01:00:38;6.75;;;5.00;;
39750;SDS011;37579;51.074;17.004;2023-03-01T01:03:04;8.30;;;4.95;;
39750;SDS011;37579;51.074;17.004;2023-03-01T01:05:30;7.15;;;5.22;;
39750;SDS011;37579;51.074;17.004;2023-03-01T01:07:56;6.47;;;5.07;;
39750;SDS011;37579;51.074;17.004;2023-03-01T01:10:21;6.28;;;5.20;;
39750;SDS011;37579;51.074;17.004;2023-03-01T01:12:47;6.55;;;4.80;;
39750;SDS011;37579;51.074;17.004;2023-03-01T01:15:13;6.50;;;4.65;;
39750;SDS011;37579;51.074;17.004;2023-03-01T01:17:41;7.85;;;5.60;;
39750;SDS011;37579;51.074;17.004;2023-03-01T01:20:08;6.43;;;5.45;;
39750;SDS011;37579;51.074;17.004;2023-03-01T01:22:35;6.57;;;5.47;;
39750;SDS011;37579;51.074;17.004;2023-03-01T01:25:01;8.80;;;5.63;;
39750;SDS011;37579;51.074;17.004;2023-03-01T01:27:26;7.65;;;5.10;;
39750;SDS011;37579;51.074;17.004;2023-03-01T01:29:53;8.10;;;4.97;;
39750;SDS011;37579;51.074;17.004;2023-03-01T01:32:19;8.10;;;6.05;;
39750;SDS011;37579;51.074;17.004;2023-03-01T01:34:44;7.82;;;5.63;;
39750;SDS011;37579;51.074;17.004;2023-03-01T01:37:11;7.72;;;5.78;;
39750;SDS011;37579;51.074;17.004;2023-03-01T01:39:37;9.55;;;5.70;;
39750;SDS011;37579;51.074;17.004;2023-03-01T01:42:03;7.63;;;5.85;;
39750;SDS011;37579;51.074;17.004;2023-03-01T01:44:29;7.00;;;5.53;;
39750;SDS011;37579;51.074;17.004;2023-03-01T01:49:37;8.02;;;5.70;;
39750;SDS011;37579;51.074;17.004;2023-03-01T01:52:14;7.25;;;5.32;;
39750;SDS011;37579;51.074;17.004;2023-03-01T01:54:53;8.98;;;5.93;;
39750;SDS011;37579;51.074;17.004;2023-03-01T01:57:22;7.95;;;5.22;;
39750;SDS011;37579;51.074;17.004;2023-03-01T01:59:52;7.68;;;5.63;;
39750;SDS011;37579;51.074;17.004;2023-03-01T02:02:24;6.97;;;5.50;;
39750;SDS011;37579;51.074;17.004;2023-03-01T02:04:52;9.40;;;5.97;;
39750;SDS011;37579;51.074;17.004;2023-03-01T02:07:24;8.07;;;5.95;;
39750;SDS011;37579;51.074;17.004;2023-03-01T02:09:51;7.57;;;6.05;;
39750;SDS011;37579;51.074;17.004;2023-03-01T02:12:18;8.85;;;5.60;;
39750;SDS011;37579;51.074;17.004;2023-03-01T02:14:46;7.25;;;5.45;;
39750;SDS011;37579;51.074;17.004;2023-03-01T02:17:12;8.30;;;5.82;;
39750;SDS011;37579;51.074;17.004;2023-03-01T02:22:32;8.07;;;6.10;;
39750;SDS011;37579;51.074;17.004;2023-03-01T02:30:27;8.82;;;5.97;;
39750;SDS011;37579;51.074;17.004;2023-03-01T02:32:55;8.63;;;6.78;;
39750;SDS011;37579;51.074;17.004;2023-03-01T02:35:33;8.55;;;6.45;;
39750;SDS011;37579;51.074;17.004;2023-03-01T02:38:03;8.40;;;6.15;;
39750;SDS011;37579;51.074;17.004;2023-03-01T02:40:33;8.27;;;6.80;;
39750;SDS011;37579;51.074;17.004;2023-03-01T02:43:01;8.35;;;6.25;;
39750;SDS011;37579;51.074;17.004;2023-03-01T02:45:29;8.60;;;6.32;;
39750;SDS011;37579;51.074;17.004;2023-03-01T02:47:56;9.68;;;6.68;;
39750;SDS011;37579;51.074;17.004;2023-03-01T02:55:20;8.75;;;6.40;;
39750;SDS011;37579;51.074;17.004;2023-03-01T02:57:46;8.10;;;5.88;;
39750;SDS011;37579;51.074;17.004;2023-03-01T03:00:28;8.48;;;6.65;;
39750;SDS011;37579;51.074;17.004;2023-03-01T03:02:59;8.73;;;6.60;;
39750;SDS011;37579;51.074;17.004;2023-03-01T03:05:26;8.65;;;6.82;;
39750;SDS011;37579;51.074;17.004;2023-03-01T03:07:56;9.90;;;6.95;;
39750;SDS011;37579;51.074;17.004;2023-03-01T03:10:25;9.00;;;6.45;;
39750;SDS011;37579;51.074;17.004;2023-03-01T03:12:57;9.75;;;6.90;;
39750;SDS011;37579;51.074;17.004;2023-03-01T03:15:25;8.90;;;6.65;;
39750;SDS011;37579;51.074;17.004;2023-03-01T03:17:54;7.95;;;6.43;;
39750;SDS011;37579;51.074;17.004;2023-03-01T03:20:22;8.55;;;6.70;;
39750;SDS011;37579;51.074;17.004;2023-03-01T03:22:50;9.85;;;6.88;;
39750;SDS011;37579;51.074;17.004;2023-03-01T03:25:18;8.75;;;6.57;;
39750;SDS011;37579;51.074;17.004;2023-03-01T03:27:46;9.57;;;7.03;;
39750;SDS011;37579;51.074;17.004;2023-03-01T03:30:14;9.27;;;6.53;;
39750;SDS011;37579;51.074;17.004;2023-03-01T03:32:43;8.30;;;6.78;;
39750;SDS011;37579;51.074;17.004;2023-03-01T03:37:51;8.95;;;7.10;;
39750;SDS011;37579;51.074;17.004;2023-03-01T03:40:33;9.85;;;7.38;;
39750;SDS011;37579;51.074;17.004;2023-03-01T03:43:06;9.50;;;6.97;;
39750;SDS011;37579;51.074;17.004;2023-03-01T03:45:33;9.57;;;6.93;;
39750;SDS011;37579;51.074;17.004;2023-03-01T03:48:00;9.95;;;7.25;;
39750;SDS011;37579;51.074;17.004;2023-03-01T03:50:27;7.75;;;6.32;;
39750;SDS011;37579;51.074;17.004;2023-03-01T03:52:53;9.02;;;6.80;;
39750;SDS011;37579;51.074;17.004;2023-03-01T03:55:19;9.52;;;7.18;;
39750;SDS011;37579;51.074;17.004;2023-03-01T03:57:45;9.80;;;7.35;;
39750;SDS011;37579;51.074;17.004;2023-03-01T04:00:20;9.15;;;6.88;;
39750;SDS011;37579;51.074;17.004;2023-03-01T04:02:49;11.07;;;7.17;;
39750;SDS011;37579;51.074;17.004;2023-03-01T04:05:16;9.23;;;7.45;;
39750;SDS011;37579;51.074;17.004;2023-03-01T04:07:43;10.75;;;7.47;;
39750;SDS011;37579;51.074;17.004;2023-03-01T04:10:10;10.10;;;7.60;;
39750;SDS011;37579;51.074;17.004;2023-03-01T04:12:38;10.00;;;7.93;;
39750;SDS011;37579;51.074;17.004;2023-03-01T04:15:05;10.43;;;7.40;;
39750;SDS011;37579;51.074;17.004;2023-03-01T04:17:45;9.65;;;7.13;;
39750;SDS011;37579;51.074;17.004;2023-03-01T04:20:13;11.90;;;8.00;;
39750;SDS011;37579;51.074;17.004;2023-03-01T04:22:49;10.73;;;7.70;;
39750;SDS011;37579;51.074;17.004;2023-03-01T04:25:44;10.23;;;7.80;;
39750;SDS011;37579;51.074;17.004;2023-03-01T04:31:10;12.05;;;7.85;;
39750;SDS011;37579;51.074;17.004;2023-03-01T04:33:41;9.60;;;7.28;;
39750;SDS011;37579;51.074;17.004;2023-03-01T04:36:10;10.50;;;8.00;;
39750;SDS011;37579;51.074;17.004;2023-03-01T04:38:37;9.07;;;7.47;;
39750;SDS011;37579;51.074;17.004;2023-03-01T04:41:07;10.10;;;7.75;;
39750;SDS011;37579;51.074;17.004;2023-03-01T04:43:34;11.35;;;7.97;;
39750;SDS011;37579;51.074;17.004;2023-03-01T04:46:21;8.90;;;7.78;;
39750;SDS011;37579;51.074;17.004;2023-03-01T04:48:47;10.55;;;7.95;;
39750;SDS011;37579;51.074;17.004;2023-03-01T04:51:13;10.45;;;7.97;;
39750;SDS011;37579;51.074;17.004;2023-03-01T04:53:39;10.35;;;7.88;;
39750;SDS011;37579;51.074;17.004;2023-03-01T04:56:06;9.38;;;7.72;;
39750;SDS011;37579;51.074;17.004;2023-03-01T04:58:32;10.50;;;7.68;;
39750;SDS011;37579;51.074;17.004;2023-03-01T05:00:58;9.82;;;7.80;;
39750;SDS011;37579;51.074;17.004;2023-03-01T05:03:24;10.73;;;8.23;;
39750;SDS011;37579;51.074;17.004;2023-03-01T05:05:51;9.60;;;7.60;;
39750;SDS011;37579;51.074;17.004;2023-03-01T05:08:17;9.93;;;7.60;;
39750;SDS011;37579;51.074;17.004;2023-03-01T05:10:49;9.88;;;7.95;;
39750;SDS011;37579;51.074;17.004;2023-03-01T05:13:16;10.90;;;8.02;;
39750;SDS011;37579;51.074;17.004;2023-03-01T05:16:04;10.60;;;7.57;;
39750;SDS011;37579;51.074;17.004;2023-03-01T05:18:32;11.27;;;7.63;;
39750;SDS011;37579;51.074;17.004;2023-03-01T05:21:03;10.30;;;7.93;;
39750;SDS011;37579;51.074;17.004;2023-03-01T05:23:31;11.48;;;8.57;;
39750;SDS011;37579;51.074;17.004;2023-03-01T05:25:58;10.77;;;8.13;;
39750;SDS011;37579;51.074;17.004;2023-03-01T05:28:25;9.68;;;7.88;;
39750;SDS011;37579;51.074;17.004;2023-03-01T05:30:53;10.43;;;8.45;;
39750;SDS011;37579;51.074;17.004;2023-03-01T05:33:19;10.82;;;8.32;;
39750;SDS011;37579;51.074;17.004;2023-03-01T05:35:47;10.50;;;8.30;;
39750;SDS011;37579;51.074;17.004;2023-03-01T05:38:14;10.77;;;8.00;;
39750;SDS011;37579;51.074;17.004;2023-03-01T05:40:44;10.20;;;8.05;;
39750;SDS011;37579;51.074;17.004;2023-03-01T05:43:11;11.27;;;8.70;;
39750;SDS011;37579;51.074;17.004;2023-03-01T05:45:38;11.35;;;8.23;;
39750;SDS011;37579;51.074;17.004;2023-03-01T05:48:05;11.75;;;8.57;;
39750;SDS011;37579;51.074;17.004;2023-03-01T05:50:32;12.77;;;9.00;;
39750;SDS011;37579;51.074;17.004;2023-03-01T05:53:07;10.65;;;8.23;;
39750;SDS011;37579;51.074;17.004;2023-03-01T05:55:36;11.45;;;8.02;;
39750;SDS011;37579;51.074;17.004;2023-03-01T05:58:03;13.38;;;8.77;;
39750;SDS011;37579;51.074;17.004;2023-03-01T06:00:31;11.80;;;8.38;;
39750;SDS011;37579;51.074;17.004;2023-03-01T06:02:57;12.00;;;8.77;;
39750;SDS011;37579;51.074;17.004;2023-03-01T06:05:25;10.43;;;7.70;;
39750;SDS011;37579;51.074;17.004;2023-03-01T06:07:51;9.00;;;6.82;;
39750;SDS011;37579;51.074;17.004;2023-03-01T06:10:18;10.38;;;6.85;;
39750;SDS011;37579;51.074;17.004;2023-03-01T06:12:45;13.18;;;6.68;;
39750;SDS011;37579;51.074;17.004;2023-03-01T06:15:12;17.30;;;6.13;;
39750;SDS011;37579;51.074;17.004;2023-03-01T06:17:40;11.73;;;6.95;;
39750;SDS011;37579;51.074;17.004;2023-03-01T06:20:08;9.63;;;6.90;;
39750;SDS011;37579;51.074;17.004;2023-03-01T06:22:40;7.38;;;5.32;;
39750;SDS011;37579;51.074;17.004;2023-03-01T06:25:07;9.48;;;6.28;;
39750;SDS011;37579;51.074;17.004;2023-03-01T06:27:34;9.57;;;5.90;;
39750;SDS011;37579;51.074;17.004;2023-03-01T06:30:01;5.65;;;4.55;;
39750;SDS011;37579;51.074;17.004;2023-03-01T06:32:27;7.82;;;5.15;;
39750;SDS011;37579;51.074;17.004;2023-03-01T06:34:53;8.65;;;5.03;;
39750;SDS011;37579;51.074;17.004;2023-03-01T06:37:19;6.75;;;5.00;;
39750;SDS011;37579;51.074;17.004;2023-03-01T06:39:44;7.40;;;4.95;;
39750;SDS011;37579;51.074;17.004;2023-03-01T06:42:10;7.35;;;4.75;;
39750;SDS011;37579;51.074;17.004;2023-03-01T06:44:36;5.60;;;4.28;;
39750;SDS011;37579;51.074;17.004;2023-03-01T06:47:02;5.80;;;4.47;;
39750;SDS011;37579;51.074;17.004;2023-03-01T06:49:28;5.00;;;3.47;;
39750;SDS011;37579;51.074;17.004;2023-03-01T06:51:55;4.50;;;3.42;;
39750;SDS011;37579;51.074;17.004;2023-03-01T06:54:21;4.40;;;3.47;;
39750;SDS011;37579;51.074;17.004;2023-03-01T06:56:48;5.75;;;4.15;;
39750;SDS011;37579;51.074;17.004;2023-03-01T06:59:15;4.60;;;3.58;;
39750;SDS011;37579;51.074;17.004;2023-03-01T07:01:41;5.57;;;3.80;;
39750;SDS011;37579;51.074;17.004;2023-03-01T07:04:07;4.38;;;3.65;;
39750;SDS011;37579;51.074;17.004;2023-03-01T07:06:33;5.70;;;4.10;;
39750;SDS011;37579;51.074;17.004;2023-03-01T07:08:59;5.65;;;4.00;;
39750;SDS011;37579;51.074;17.004;2023-03-01T07:11:24;5.85;;;3.92;;
39750;SDS011;37579;51.074;17.004;2023-03-01T07:13:50;5.30;;;4.20;;
39750;SDS011;37579;51.074;17.004;2023-03-01T07:16:16;6.80;;;4.63;;
39750;SDS011;37579;51.074;17.004;2023-03-01T07:18:42;5.97;;;4.78;;
39750;SDS011;37579;51.074;17.004;2023-03-01T07:21:08;6.90;;;4.70;;
39750;SDS011;37579;51.074;17.004;2023-03-01T07:23:36;9.35;;;5.75;;
39750;SDS011;37579;51.074;17.004;2023-03-01T07:26:02;7.00;;;5.18;;
39750;SDS011;37579;51.074;17.004;2023-03-01T07:28:28;7.97;;;5.60;;
39750;SDS011;37579;51.074;17.004;2023-03-01T07:30:54;7.93;;;5.40;;
39750;SDS011;37579;51.074;17.004;2023-03-01T07:33:20;8.60;;;5.85;;
39750;SDS011;37579;51.074;17.004;2023-03-01T07:35:46;9.52;;;5.60;;
39750;SDS011;37579;51.074;17.004;2023-03-01T07:38:12;10.02;;;5.80;;
39750;SDS011;37579;51.074;17.004;2023-03-01T07:40:38;11.95;;;6.03;;
39750;SDS011;37579;51.074;17.004;2023-03-01T07:43:04;8.73;;;6.05;;
39750;SDS011;37579;51.074;17.004;2023-03-01T07:45:29;9.98;;;5.50;;
39750;SDS011;37579;51.074;17.004;2023-03-01T07:47:55;7.78;;;4.95;;
39750;SDS011;37579;51.074;17.004;2023-03-01T07:50:21;9.25;;;5.43;;
39750;SDS011;37579;51.074;17.004;2023-03-01T07:52:48;8.88;;;5.70;;
39750;SDS011;37579;51.074;17.004;2023-03-01T07:55:15;8.90;;;5.70;;
39750;SDS011;37579;51.074;17.004;2023-03-01T07:57:41;8.95;;;5.30;;
39750;SDS011;37579;51.074;17.004;2023-03-01T08:00:09;7.30;;;5.43;;
39750;SDS011;37579;51.074;17.004;2023-03-01T08:02:39;9.85;;;5.50;;
39750;SDS011;37579;51.074;17.004;2023-03-01T08:05:07;11.90;;;5.85;;
39750;SDS011;37579;51.074;17.004;2023-03-01T08:07:35;9.13;;;5.65;;
39750;SDS011;37579;51.074;17.004;2023-03-01T08:10:00;9.65;;;5.90;;
39750;SDS011;37579;51.074;17.004;2023-03-01T08:12:26;7.43;;;5.72;;
39750;SDS011;37579;51.074;17.004;2023-03-01T08:14:53;11.23;;;5.68;;
39750;SDS011;37579;51.074;17.004;2023-03-01T08:17:19;12.10;;;7.05;;
39750;SDS011;37579;51.074;17.004;2023-03-01T08:19:45;15.25;;;7.85;;
39750;SDS011;37579;51.074;17.004;2023-03-01T08:22:11;10.93;;;7.05;;
39750;SDS011;37579;51.074;17.004;2023-03-01T08:24:36;11.40;;;6.95;;
39750;SDS011;37579;51.074;17.004;2023-03-01T08:27:03;9.80;;;6.40;;
39750;SDS011;37579;51.074;17.004;2023-03-01T08:29:32;9.35;;;6.03;;
39750;SDS011;37579;51.074;17.004;2023-03-01T08:31:58;8.63;;;5.68;;
39750;SDS011;37579;51.074;17.004;2023-03-01T08:34:24;10.95;;;6.22;;
39750;SDS011;37579;51.074;17.004;2023-03-01T08:36:50;12.02;;;6.55;;
39750;SDS011;37579;51.074;17.004;2023-03-01T08:39:18;11.80;;;6.40;;
39750;SDS011;37579;51.074;17.004;2023-03-01T08:41:45;10.43;;;5.80;;
39750;SDS011;37579;51.074;17.004;2023-03-01T08:44:12;7.53;;;4.90;;
39750;SDS011;37579;51.074;17.004;2023-03-01T08:46:40;9.48;;;5.32;;
39750;SDS011;37579;51.074;17.004;2023-03-01T08:49:13;8.88;;;5.43;;
39750;SDS011;37579;51.074;17.004;2023-03-01T08:51:40;12.50;;;5.65;;
39750;SDS011;37579;51.074;17.004;2023-03-01T08:54:09;10.55;;;5.28;;
39750;SDS011;37579;51.074;17.004;2023-03-01T08:56:37;15.75;;;5.88;;
39750;SDS011;37579;51.074;17.004;2023-03-01T08:59:03;12.45;;;5.53;;
39750;SDS011;37579;51.074;17.004;2023-03-01T09:01:29;14.00;;;5.70;;
39750;SDS011;37579;51.074;17.004;2023-03-01T09:03:55;8.70;;;5.15;;
39750;SDS011;37579;51.074;17.004;2023-03-01T09:06:21;7.68;;;4.80;;
39750;SDS011;37579;51.074;17.004;2023-03-01T09:08:47;9.48;;;5.53;;
39750;SDS011;37579;51.074;17.004;2023-03-01T09:11:15;8.50;;;4.78;;
39750;SDS011;37579;51.074;17.004;2023-03-01T09:13:43;9.98;;;6.13;;
39750;SDS011;37579;51.074;17.004;2023-03-01T09:16:10;8.32;;;5.95;;
39750;SDS011;37579;51.074;17.004;2023-03-01T09:18:38;13.60;;;7.00;;
39750;SDS011;37579;51.074;17.004;2023-03-01T09:21:05;12.55;;;6.45;;
39750;SDS011;37579;51.074;17.004;2023-03-01T09:23:40;12.57;;;6.93;;
39750;SDS011;37579;51.074;17.004;2023-03-01T09:26:12;10.48;;;6.22;;
39750;SDS011;37579;51.074;17.004;2023-03-01T09:28:44;12.13;;;7.35;;
39750;SDS011;37579;51.074;17.004;2023-03-01T09:31:11;9.10;;;6.25;;
39750;SDS011;37579;51.074;17.004;2023-03-01T09:33:38;11.25;;;8.45;;
39750;SDS011;37579;51.074;17.004;2023-03-01T09:36:06;15.63;;;7.43;;
39750;SDS011;37579;51.074;17.004;2023-03-01T09:38:37;11.40;;;7.60;;
39750;SDS011;37579;51.074;17.004;2023-03-01T09:41:09;11.93;;;6.97;;
39750;SDS011;37579;51.074;17.004;2023-03-01T09:43:48;10.18;;;6.80;;
39750;SDS011;37579;51.074;17.004;2023-03-01T09:46:21;10.27;;;6.68;;
39750;SDS011;37579;51.074;17.004;2023-03-01T09:48:50;9.95;;;6.10;;
39750;SDS011;37579;51.074;17.004;2023-03-01T09:51:25;9.20;;;6.43;;
39750;SDS011;37579;51.074;17.004;2023-03-01T09:53:55;12.07;;;6.20;;
39750;SDS011;37579;51.074;17.004;2023-03-01T09:59:20;9.70;;;6.00;;
39750;SDS011;37579;51.074;17.004;2023-03-01T10:10:28;8.02;;;5.57;;
39750;SDS011;37579;51.074;17.004;2023-03-01T10:13:00;8.95;;;5.47;;
39750;SDS011;37579;51.074;17.004;2023-03-01T10:15:44;8.57;;;5.20;;
39750;SDS011;37579;51.074;17.004;2023-03-01T10:18:19;10.25;;;5.18;;
39750;SDS011;37579;51.074;17.004;2023-03-01T10:20:52;10.00;;;5.13;;
39750;SDS011;37579;51.074;17.004;2023-03-01T10:23:26;8.02;;;4.63;;
39750;SDS011;37579;51.074;17.004;2023-03-01T10:31:46;7.75;;;4.93;;
39750;SDS011;37579;51.074;17.004;2023-03-01T10:36:49;7.80;;;4.70;;
39750;SDS011;37579;51.074;17.004;2023-03-01T10:39:18;12.18;;;6.07;;
39750;SDS011;37579;51.074;17.004;2023-03-01T10:41:56;14.93;;;7.47;;
39750;SDS011;37579;51.074;17.004;2023-03-01T10:44:40;11.70;;;6.95;;
39750;SDS011;37579;51.074;17.004;2023-03-01T10:47:11;12.55;;;6.50;;
39750;SDS011;37579;51.074;17.004;2023-03-01T10:52:17;10.00;;;6.45;;
39750;SDS011;37579;51.074;17.004;2023-03-01T11:00:56;13.95;;;6.55;;
39750;SDS011;37579;51.074;17.004;2023-03-01T11:03:24;11.30;;;6.05;;
39750;SDS011;37579;51.074;17.004;2023-03-01T11:06:12;16.33;;;6.70;;
39750;SDS011;37579;51.074;17.004;2023-03-01T11:11:21;11.02;;;6.07;;
39750;SDS011;37579;51.074;17.004;2023-03-01T11:13:54;11.73;;;5.60;;
39750;SDS011;37579;51.074;17.004;2023-03-01T11:16:29;9.70;;;5.50;;
39750;SDS011;37579;51.074;17.004;2023-03-01T11:19:04;11.32;;;5.43;;
39750;SDS011;37579;51.074;17.004;2023-03-01T11:24:19;11.05;;;5.10;;
39750;SDS011;37579;51.074;17.004;2023-03-01T11:26:52;11.98;;;5.82;;
39750;SDS011;37579;51.074;17.004;2023-03-01T11:29:26;9.35;;;5.28;;
39750;SDS011;37579;51.074;17.004;2023-03-01T11:31:55;8.40;;;5.47;;
39750;SDS011;37579;51.074;17.004;2023-03-01T11:37:09;9.43;;;4.95;;
39750;SDS011;37579;51.074;17.004;2023-03-01T11:39:52;8.50;;;5.20;;
39750;SDS011;37579;51.074;17.004;2023-03-01T11:42:27;11.52;;;5.93;;
39750;SDS011;37579;51.074;17.004;2023-03-01T11:45:17;10.77;;;4.50;;
39750;SDS011;37579;51.074;17.004;2023-03-01T11:47:52;8.18;;;4.20;;
39750;SDS011;37579;51.074;17.004;2023-03-01T11:55:57;27.92;;;7.00;;
39750;SDS011;37579;51.074;17.004;2023-03-01T12:07:47;19.52;;;5.93;;
39750;SDS011;37579;51.074;17.004;2023-03-01T12:10:30;14.35;;;5.38;;
39750;SDS011;37579;51.074;17.004;2023-03-01T12:16:12;14.68;;;5.20;;
39750;SDS011;37579;51.074;17.004;2023-03-01T12:29:38;12.30;;;4.93;;
39750;SDS011;37579;51.074;17.004;2023-03-01T12:49:13;9.25;;;4.20;;
39750;SDS011;37579;51.074;17.004;2023-03-01T12:51:44;10.20;;;4.37;;
39750;SDS011;37579;51.074;17.004;2023-03-01T12:54:35;7.87;;;3.93;;
39750;SDS011;37579;51.074;17.004;2023-03-01T12:57:03;10.70;;;4.28;;
39750;SDS011;37579;51.074;17.004;2023-03-01T13:05:21;8.07;;;3.80;;
39750;SDS011;37579;51.074;17.004;2023-03-01T13:08:18;9.05;;;3.58;;
39750;SDS011;37579;51.074;17.004;2023-03-01T13:10:55;5.80;;;3.47;;
39750;SDS011;37579;51.074;17.004;2023-03-01T13:13:27;8.90;;;3.45;;
39750;SDS011;37579;51.074;17.004;2023-03-01T13:15:53;6.90;;;3.13;;
39750;SDS011;37579;51.074;17.004;2023-03-01T13:20:48;6.93;;;3.00;;
39750;SDS011;37579;51.074;17.004;2023-03-01T13:26:05;5.00;;;2.97;;
39750;SDS011;37579;51.074;17.004;2023-03-01T13:28:41;6.90;;;3.03;;
39750;SDS011;37579;51.074;17.004;2023-03-01T13:31:11;6.82;;;2.97;;
39750;SDS011;37579;51.074;17.004;2023-03-01T13:33:55;7.00;;;3.33;;
39750;SDS011;37579;51.074;17.004;2023-03-01T13:44:49;7.75;;;3.55;;
39750;SDS011;37579;51.074;17.004;2023-03-01T13:49:51;10.55;;;3.53;;
39750;SDS011;37579;51.074;17.004;2023-03-01T13:55:06;7.50;;;3.78;;
39750;SDS011;37579;51.074;17.004;2023-03-01T13:57:53;7.57;;;3.90;;
39750;SDS011;37579;51.074;17.004;2023-03-01T14:00:32;9.32;;;3.75;;
39750;SDS011;37579;51.074;17.004;2023-03-01T14:05:41;8.82;;;4.00;;
39750;SDS011;37579;51.074;17.004;2023-03-01T14:08:27;10.07;;;4.15;;
39750;SDS011;37579;51.074;17.004;2023-03-01T14:10:59;10.80;;;4.00;;
39750;SDS011;37579;51.074;17.004;2023-03-01T14:16:41;8.18;;;4.15;;
39750;SDS011;37579;51.074;17.004;2023-03-01T14:19:14;8.02;;;4.13;;
39750;SDS011;37579;51.074;17.004;2023-03-01T14:21:46;7.75;;;3.92;;
39750;SDS011;37579;51.074;17.004;2023-03-01T14:24:19;7.95;;;3.30;;
39750;SDS011;37579;51.074;17.004;2023-03-01T14:26:49;7.22;;;3.85;;
39750;SDS011;37579;51.074;17.004;2023-03-01T14:35:36;9.85;;;3.63;;
39750;SDS011;37579;51.074;17.004;2023-03-01T14:38:02;6.80;;;3.28;;
39750;SDS011;37579;51.074;17.004;2023-03-01T14:40:32;8.95;;;3.90;;
39750;SDS011;37579;51.074;17.004;2023-03-01T14:43:03;7.63;;;3.03;;
39750;SDS011;37579;51.074;17.004;2023-03-01T14:45:35;7.40;;;3.20;;
39750;SDS011;37579;51.074;17.004;2023-03-01T14:48:02;7.35;;;3.33;;
39750;SDS011;37579;51.074;17.004;2023-03-01T14:50:31;7.18;;;3.30;;
39750;SDS011;37579;51.074;17.004;2023-03-01T14:53:01;7.80;;;3.47;;
39750;SDS011;37579;51.074;17.004;2023-03-01T14:55:31;7.65;;;3.08;;
39750;SDS011;37579;51.074;17.004;2023-03-01T14:57:58;14.02;;;4.05;;
39750;SDS011;37579;51.074;17.004;2023-03-01T15:00:25;9.23;;;3.22;;
39750;SDS011;37579;51.074;17.004;2023-03-01T15:02:53;5.85;;;3.42;;
39750;SDS011;37579;51.074;17.004;2023-03-01T15:05:30;8.35;;;3.30;;
39750;SDS011;37579;51.074;17.004;2023-03-01T15:07:58;5.57;;;3.00;;
39750;SDS011;37579;51.074;17.004;2023-03-01T15:10:28;7.18;;;3.17;;
39750;SDS011;37579;51.074;17.004;2023-03-01T15:12:56;5.10;;;2.75;;
39750;SDS011;37579;51.074;17.004;2023-03-01T15:15:36;6.35;;;3.28;;
39750;SDS011;37579;51.074;17.004;2023-03-01T15:18:13;6.32;;;3.15;;
39750;SDS011;37579;51.074;17.004;2023-03-01T15:20:45;7.28;;;3.10;;
39750;SDS011;37579;51.074;17.004;2023-03-01T15:23:23;6.20;;;2.70;;
39750;SDS011;37579;51.074;17.004;2023-03-01T15:25:57;6.85;;;2.80;;
39750;SDS011;37579;51.074;17.004;2023-03-01T15:28:28;6.78;;;2.70;;
39750;SDS011;37579;51.074;17.004;2023-03-01T15:33:32;5.88;;;2.70;;
39750;SDS011;37579;51.074;17.004;2023-03-01T15:36:00;6.15;;;2.88;;
39750;SDS011;37579;51.074;17.004;2023-03-01T15:41:00;6.18;;;2.70;;
39750;SDS011;37579;51.074;17.004;2023-03-01T15:43:38;5.38;;;3.00;;
39750;SDS011;37579;51.074;17.004;2023-03-01T15:46:14;7.55;;;2.63;;
39750;SDS011;37579;51.074;17.004;2023-03-01T15:48:46;5.78;;;2.80;;
39750;SDS011;37579;51.074;17.004;2023-03-01T15:51:14;7.80;;;2.58;;
39750;SDS011;37579;51.074;17.004;2023-03-01T15:53:41;4.55;;;2.35;;
39750;SDS011;37579;51.074;17.004;2023-03-01T15:56:14;4.47;;;2.75;;
39750;SDS011;37579;51.074;17.004;2023-03-01T15:58:42;3.97;;;2.50;;
39750;SDS011;37579;51.074;17.004;2023-03-01T16:01:10;5.88;;;2.63;;
39750;SDS011;37579;51.074;17.004;2023-03-01T16:03:44;6.13;;;2.38;;
39750;SDS011;37579;51.074;17.004;2023-03-01T16:06:11;6.30;;;2.38;;
39750;SDS011;37579;51.074;17.004;2023-03-01T16:08:38;3.42;;;2.15;;
39750;SDS011;37579;51.074;17.004;2023-03-01T16:11:05;6.93;;;2.28;;
39750;SDS011;37579;51.074;17.004;2023-03-01T16:13:39;6.00;;;2.50;;
39750;SDS011;37579;51.074;17.004;2023-03-01T16:16:04;7.07;;;2.25;;
39750;SDS011;37579;51.074;17.004;2023-03-01T16:18:30;7.07;;;2.80;;
39750;SDS011;37579;51.074;17.004;2023-03-01T16:20:56;4.03;;;2.28;;
39750;SDS011;37579;51.074;17.004;2023-03-01T16:23:22;5.95;;;1.70;;
39750;SDS011;37579;51.074;17.004;2023-03-01T16:25:50;5.95;;;2.22;;
39750;SDS011;37579;51.074;17.004;2023-03-01T16:28:16;5.45;;;2.38;;
39750;SDS011;37579;51.074;17.004;2023-03-01T16:30:45;5.60;;;2.10;;
39750;SDS011;37579;51.074;17.004;2023-03-01T16:33:12;5.22;;;2.38;;
39750;SDS011;37579;51.074;17.004;2023-03-01T16:35:41;5.72;;;2.58;;
39750;SDS011;37579;51.074;17.004;2023-03-01T16:38:08;9.13;;;2.47;;
39750;SDS011;37579;51.074;17.004;2023-03-01T16:40:34;5.50;;;2.35;;
39750;SDS011;37579;51.074;17.004;2023-03-01T16:43:00;6.43;;;2.63;;
39750;SDS011;37579;51.074;17.004;2023-03-01T16:45:33;6.50;;;2.53;;
39750;SDS011;37579;51.074;17.004;2023-03-01T16:48:05;7.00;;;2.90;;
39750;SDS011;37579;51.074;17.004;2023-03-01T16:50:31;6.50;;;2.60;;
39750;SDS011;37579;51.074;17.004;2023-03-01T16:52:57;7.07;;;2.90;;
39750;SDS011;37579;51.074;17.004;2023-03-01T16:55:23;6.82;;;2.30;;
39750;SDS011;37579;51.074;17.004;2023-03-01T16:57:49;4.85;;;2.15;;
39750;SDS011;37579;51.074;17.004;2023-03-01T17:00:16;8.05;;;2.75;;
39750;SDS011;37579;51.074;17.004;2023-03-01T17:02:43;5.32;;;2.70;;
39750;SDS011;37579;51.074;17.004;2023-03-01T17:05:09;6.13;;;2.35;;
39750;SDS011;37579;51.074;17.004;2023-03-01T17:07:37;4.47;;;2.25;;
39750;SDS011;37579;51.074;17.004;2023-03-01T17:10:04;7.32;;;2.83;;